EDDMLGKR

Guest
Details From EDDM - Muenchen Franz-josef Strauss
To LGKR - Ioannis Kapodistrias Intl
Flight Number -
Tags Generated
Created
Modified
Stats Distance 631 nm / 1,169 km
Max Altitude 0 ft / 0 m
Waypoints 4
Social Downloads 1
Likes 0
Share VATSIM

Download

Looking for another format? Having issues loading an existing format? Contact us
Advertisement - Login to hide

Notes

Generated

Route

EDDM DIGOT GAR02 LGKR

ID Type Via Altitude Latitude Longitude Leg Dist Tot Dist Heading (true) Name
O EDDM APT - 0 ft / 0 m 48.34069˚ 11.75108˚ - 0 nm - -
DIGOT FIX - 0 ft / 0 m 44.39000˚ 15.66778˚ 287 nm 287 nm 144° / 147° -
GAR02 FIX - 0 ft / 0 m 39.63925˚ 19.90187˚ 342 nm 629 nm 145° / 148° -
O LGKR APT - 0 ft / 0 m 39.61228˚ 19.90921˚ 1 nm 631 nm 168° / 168° -

Altitude Profile

Advertisement - Login to hide

Weather


0- 5 10 15 20 25 30 35+ Temperature / ° C

Clouds and Precipitation
Forecast for 2017-12-16 06:00 UTC. Updated 2 hours ago

Ground ~20,000 ft ~40,000 ft Winds

EDDM

Details ICAO EDDM (MUC)
Name Muenchen Franz-Josef Strauss
Region Germany - Civil
Timezone Europe/Berlin (UTC+1.0)
Stats Elevation 1,487 ft / 453 m (AMSL)
Location 48.353786° 11.786117°
Runways 2
Magnetic Variation 3.162° E

METAR

EDDM 160720Z 24007KT 9999 FEW047 BKN065 BKN100 01/M02 Q1005 NOSIG

Decode

TAF

TAF EDDM 160500Z 1606/1712 24004KT 9999 BKN040 TEMPO 1606/1712 4000 -SN BKN012 BECMG 1609/1611 26010KT PROB30 TEMPO 1613/1620 32015G25KT 1200 SHSN VV004 BKN010CB PROB30 TEMPO 1709/1712 32015G25KT 1200 SHSN VV004 BKN010CB

Decode

Departure Runways

ID Width Length Bearing (true) Bearing (mag) Surface Threshold Offset Overrun Length
08L 197 ft / 60 m 13,086 ft / 3,989 m 83.38° 80.22° Concrete 0 ft / 0 m 0 ft / 0 m
08R 197 ft / 60 m 13,086 ft / 3,989 m 83.37° 80.21° Concrete 0 ft / 0 m 0 ft / 0 m
26L 197 ft / 60 m 13,086 ft / 3,989 m 263.41° 260.25° Concrete 0 ft / 0 m 0 ft / 0 m
26R 197 ft / 60 m 13,086 ft / 3,989 m 263.42° 260.26° Concrete 0 ft / 0 m 0 ft / 0 m

LGKR

Details ICAO LGKR (CFU)
Name IOANNIS KAPODISTRIAS INTL
Region Greece
Timezone Europe/Athens (UTC+2.0)
Stats Elevation 6 ft / 2 m (AMSL)
Location 39.601779° 19.911908°
Runways 1
Magnetic Variation 4.098° E

METAR

LGKR 160650Z 16013KT 9999 SCT013 BKN020 17/14 Q1009 NOSIG

Decode

TAF

TAF LGKR 160500Z 1606/1706 16018KT 9999 SCT010 BKN025 PROB40 TEMPO 1606/1703 5000 RA BKN020 BKN080 PROB30 TEMPO 1609/1624 4000 TSRA FEW018CB BKN020 BKN080 BECMG 1610/1612 22010KT BECMG 1616/1618 16008KT BECMG 1622/1624 34008KT

Decode

Destination Runways

ID Width Length Bearing (true) Bearing (mag) Surface Threshold Offset Overrun Length
17 148 ft / 45 m 7,815 ft / 2,382 m 168.81° 164.71° Asphalt 1,348 ft / 411 m 0 ft / 0 m
35 148 ft / 45 m 7,815 ft / 2,382 m 348.81° 344.71° Asphalt 213 ft / 65 m 0 ft / 0 m

Popular Alternatives